Time;durP1;ratioP1;P1;durP2;ratioP2;P2;SDS_P1;SDS_P2;PMS_P1;PMS_P2;Temp;Humidity;BMP_temperature;BMP_pressure;BME280_temperature;BME280_humidity;BME280_pressure;Samples;Min_cycle;Max_cycle;Signal;HPM_P1;HPM_P2
2023/09/21 00:01:03;;;;;;;0.40;0.30;;;16.50;99.90;;;;;;4986768;28;20501;-81
2023/09/21 00:03:30;;;;;;;0.40;0.20;;;16.30;99.90;;;;;;5002242;28;20241;-82
2023/09/21 00:05:57;;;;;;;0.40;0.20;;;16.40;99.90;;;;;;5012033;28;20448;-85
2023/09/21 00:08:24;;;;;;;0.40;0.20;;;16.20;99.90;;;;;;4998428;28;20476;-81
2023/09/21 00:10:54;;;;;;;0.60;0.53;;;15.90;99.90;;;;;;4991468;28;20473;-81
2023/09/21 00:13:21;;;;;;;0.40;0.30;;;15.70;99.90;;;;;;5004976;28;20465;-85
2023/09/21 00:15:47;;;;;;;0.40;0.30;;;15.50;99.90;;;;;;5011690;28;20445;-78
2023/09/21 00:18:14;;;;;;;0.40;0.20;;;15.30;99.90;;;;;;5006403;28;20453;-83
2023/09/21 00:20:45;;;;;;;0.40;0.20;;;15.00;99.90;;;;;;5012339;28;20978;-81
2023/09/21 00:23:11;;;;;;;0.40;0.20;;;14.90;99.90;;;;;;5008764;28;20457;-85
2023/09/21 00:25:37;;;;;;;0.40;0.20;;;14.90;99.90;;;;;;5008819;28;20453;-84
2023/09/21 00:28:12;;;;;;;0.40;0.30;;;14.80;99.90;;;;;;5009205;28;20449;-78
2023/09/21 00:30:38;;;;;;;0.40;0.20;;;14.80;99.90;;;;;;5006996;28;20444;-77
2023/09/21 00:33:07;;;;;;;0.40;0.20;;;14.70;99.90;;;;;;4992806;28;20547;-78
2023/09/21 00:35:42;;;;;;;0.50;0.37;;;14.70;99.90;;;;;;5013549;28;20448;-83
2023/09/21 00:38:09;;;;;;;0.40;0.20;;;14.80;99.90;;;;;;5010163;28;20433;-81
2023/09/21 00:40:38;;;;;;;0.40;0.20;;;14.80;99.90;;;;;;5006466;28;20499;-82
2023/09/21 00:43:12;;;;;;;0.50;0.50;;;14.80;99.90;;;;;;5002484;28;20437;-83
2023/09/21 00:45:41;;;;;;;0.40;0.20;;;14.80;99.90;;;;;;5004910;28;20441;-84
2023/09/21 00:48:12;;;;;;;0.40;0.20;;;14.80;99.90;;;;;;4985669;28;20449;-82
2023/09/21 00:50:41;;;;;;;0.40;0.20;;;14.90;99.90;;;;;;4997710;28;20525;-83
2023/09/21 00:53:12;;;;;;;0.40;0.20;;;15.10;99.90;;;;;;5000634;28;20445;-82
2023/09/21 00:55:40;;;;;;;0.40;0.30;;;15.30;99.90;;;;;;5007367;28;20459;-87
2023/09/21 00:58:07;;;;;;;0.40;0.30;;;15.30;99.90;;;;;;5009739;28;21026;-88
2023/09/21 01:00:33;;;;;;;0.40;0.20;;;15.20;99.90;;;;;;5003648;28;20477;-86
2023/09/21 01:03:07;;;;;;;0.40;0.30;;;15.20;99.90;;;;;;5002620;28;20534;-84
2023/09/21 01:05:36;;;;;;;0.40;0.20;;;15.10;99.90;;;;;;5003877;28;20484;-86
2023/09/21 01:08:09;;;;;;;0.40;0.20;;;15.10;99.90;;;;;;4982534;28;20822;-86
2023/09/21 01:10:42;;;;;;;0.40;0.20;;;15.00;99.90;;;;;;5001571;28;20444;-86
2023/09/21 01:13:08;;;;;;;0.40;0.30;;;15.00;99.90;;;;;;4999984;28;20855;-82
2023/09/21 01:15:34;;;;;;;0.40;0.20;;;15.00;99.90;;;;;;4991416;28;20485;-81
2023/09/21 01:18:00;;;;;;;4.00;0.80;;;15.00;99.90;;;;;;4990692;28;20511;-85
2023/09/21 01:20:32;;;;;;;0.40;0.30;;;15.10;99.90;;;;;;4994812;28;20476;-85
2023/09/21 01:23:18;;;;;;;0.40;0.27;;;15.10;99.90;;;;;;5011416;28;20513;-89
2023/09/21 01:25:52;;;;;;;0.40;0.23;;;15.20;99.90;;;;;;4993866;28;20437;-86
2023/09/21 01:28:20;;;;;;;0.40;0.30;;;15.20;99.90;;;;;;4992099;28;20469;-86
2023/09/21 01:30:48;;;;;;;0.60;0.50;;;15.20;99.90;;;;;;4994567;28;20473;-86
2023/09/21 01:33:15;;;;;;;0.40;0.23;;;15.30;99.90;;;;;;4975568;28;1121657;-89
2023/09/21 01:35:48;;;;;;;0.40;0.30;;;15.40;99.90;;;;;;5015488;28;20480;-77
2023/09/21 01:38:14;;;;;;;0.40;0.30;;;16.50;99.90;;;;;;5012227;28;20449;-82
2023/09/21 01:40:41;;;;;;;0.40;0.20;;;15.50;99.90;;;;;;5011232;28;20472;-78
2023/09/21 01:43:14;;;;;;;0.40;0.20;;;15.60;99.90;;;;;;5009439;28;20450;-78
2023/09/21 01:45:40;;;;;;;0.40;0.20;;;15.60;99.90;;;;;;5010278;28;20971;-84
2023/09/21 01:48:10;;;;;;;0.40;0.20;;;15.60;99.90;;;;;;5009702;28;20511;-81
2023/09/21 01:50:40;;;;;;;0.40;0.20;;;15.60;99.90;;;;;;5006048;28;20651;-81
2023/09/21 01:53:09;;;;;;;0.40;0.20;;;15.60;99.90;;;;;;5001922;28;20998;-80
2023/09/21 01:55:36;;;;;;;0.40;0.20;;;15.50;99.90;;;;;;5008410;28;21739;-82
2023/09/21 01:58:03;;;;;;;0.40;0.27;;;15.40;99.90;;;;;;4988145;28;20459;-81
2023/09/21 02:00:29;;;;;;;0.40;0.20;;;15.30;99.90;;;;;;5003193;28;20476;-83
2023/09/21 02:02:55;;;;;;;0.40;0.20;;;15.30;99.90;;;;;;4986937;28;20456;-83
2023/09/21 02:05:23;;;;;;;0.40;0.20;;;15.40;99.90;;;;;;5012489;28;21287;-81
2023/09/21 02:07:49;;;;;;;0.50;0.50;;;15.50;99.90;;;;;;5005034;28;20504;-86
2023/09/21 02:10:15;;;;;;;0.40;0.20;;;15.60;99.90;;;;;;5015630;28;20445;-83
2023/09/21 02:12:52;;;;;;;0.40;0.20;;;15.70;99.90;;;;;;5011338;28;20186;-82
2023/09/21 02:15:17;;;;;;;0.40;0.20;;;15.70;99.90;;;;;;5015839;28;20512;-82
2023/09/21 02:17:43;;;;;;;0.40;0.20;;;15.80;99.90;;;;;;5009279;28;20496;-82
2023/09/21 02:20:14;;;;;;;0.40;0.20;;;16.10;99.90;;;;;;5007839;28;20245;-84
2023/09/21 02:22:43;;;;;;;0.40;0.20;;;16.00;99.90;;;;;;4990292;28;20182;-85
2023/09/21 02:25:10;;;;;;;0.40;0.20;;;16.10;99.90;;;;;;5008720;28;20496;-85
2023/09/21 02:27:37;;;;;;;0.40;0.30;;;16.10;99.90;;;;;;4999084;28;20456;-83
2023/09/21 02:30:04;;;;;;;0.40;0.30;;;16.20;99.90;;;;;;5013074;28;20449;-79
2023/09/21 02:32:30;;;;;;;0.40;0.20;;;16.00;99.90;;;;;;4992180;28;20509;-82
2023/09/21 02:34:56;;;;;;;0.40;0.20;;;15.80;99.90;;;;;;4992311;28;20489;-81
2023/09/21 02:37:21;;;;;;;0.40;0.30;;;15.70;99.90;;;;;;5008968;28;20728;-79
2023/09/21 02:39:48;;;;;;;0.40;0.30;;;15.60;99.90;;;;;;5008250;28;20503;-84
2023/09/21 02:42:14;;;;;;;0.40;0.20;;;15.70;99.90;;;;;;5020664;28;20200;-78
2023/09/21 02:44:40;;;;;;;0.73;0.63;;;15.80;99.90;;;;;;5013337;28;20593;-80
2023/09/21 02:47:06;;;;;;;0.40;0.20;;;15.90;99.90;;;;;;5010484;28;20160;-77
2023/09/21 02:49:32;;;;;;;0.40;0.20;;;16.00;99.90;;;;;;5011133;28;20449;-82
2023/09/21 02:51:57;;;;;;;0.40;0.20;;;16.10;99.90;;;;;;5009383;28;21556;-82
2023/09/21 02:54:23;;;;;;;0.40;0.20;;;16.10;99.90;;;;;;5000859;28;20210;-83
2023/09/21 02:56:50;;;;;;;0.40;0.20;;;16.10;99.90;;;;;;5011332;28;20237;-84
2023/09/21 02:59:15;;;;;;;0.40;0.20;;;16.20;99.90;;;;;;5013073;28;20447;-83
2023/09/21 03:01:41;;;;;;;0.40;0.20;;;16.00;99.90;;;;;;5013011;28;20481;-81
2023/09/21 03:04:07;;;;;;;0.40;0.20;;;15.90;99.90;;;;;;5012939;28;20280;-81
2023/09/21 03:06:32;;;;;;;1.13;0.93;;;15.70;99.90;;;;;;4990703;28;20481;-84
2023/09/21 03:08:58;;;;;;;0.40;0.30;;;15.50;99.90;;;;;;5011084;28;20740;-81
2023/09/21 03:11:24;;;;;;;0.40;0.20;;;15.30;99.90;;;;;;4990810;28;20255;-86
2023/09/21 03:13:50;;;;;;;0.40;0.20;;;15.20;99.90;;;;;;5008950;28;20202;-82
2023/09/21 03:16:18;;;;;;;0.40;0.30;;;15.40;99.90;;;;;;5005255;28;20514;-84
2023/09/21 03:18:46;;;;;;;0.50;0.40;;;15.20;99.90;;;;;;5011214;28;20254;-82
2023/09/21 03:21:15;;;;;;;0.40;0.20;;;15.30;99.90;;;;;;5009423;28;20461;-81
2023/09/21 03:23:41;;;;;;;0.40;0.20;;;15.20;99.90;;;;;;5014495;28;20449;-80
2023/09/21 03:26:11;;;;;;;0.40;0.20;;;15.20;99.90;;;;;;4996635;28;20449;-80
2023/09/21 03:28:37;;;;;;;0.40;0.20;;;15.30;99.90;;;;;;4988670;28;20441;-87
2023/09/21 03:31:03;;;;;;;0.40;0.20;;;15.50;99.90;;;;;;5007286;28;20425;-84
2023/09/21 03:33:29;;;;;;;0.40;0.20;;;15.50;99.90;;;;;;4987613;28;20523;-81
2023/09/21 03:35:55;;;;;;;0.40;0.20;;;15.60;99.90;;;;;;4985761;28;20240;-81
2023/09/21 03:38:21;;;;;;;0.40;0.20;;;15.70;99.90;;;;;;5010548;28;20198;-79
2023/09/21 03:40:48;;;;;;;0.40;0.20;;;15.70;99.90;;;;;;4986888;28;20652;-86
2023/09/21 03:43:14;;;;;;;0.40;0.30;;;15.70;99.90;;;;;;4986512;28;20414;-78
2023/09/21 03:45:41;;;;;;;0.40;0.20;;;15.90;99.90;;;;;;5005111;28;20524;-86
2023/09/21 03:48:10;;;;;;;0.40;0.20;;;16.00;99.90;;;;;;4997822;28;21261;-81
2023/09/21 03:50:37;;;;;;;0.40;0.20;;;15.90;99.90;;;;;;5012567;28;20421;-82
2023/09/21 03:53:04;;;;;;;0.40;0.20;;;15.80;99.90;;;;;;5013414;28;20524;-78
2023/09/21 03:55:31;;;;;;;0.40;0.20;;;15.70;99.90;;;;;;4995662;28;20469;-80
2023/09/21 03:57:57;;;;;;;0.40;0.20;;;15.60;99.90;;;;;;5010272;28;20445;-79
2023/09/21 04:03:08;;;;;;;0.40;0.20;;;15.80;99.90;;;;;;5008359;28;20198;-86
2023/09/21 04:05:35;;;;;;;0.40;0.20;;;16.00;99.90;;;;;;5008146;28;20447;-79
2023/09/21 04:08:02;;;;;;;0.40;0.20;;;16.00;99.90;;;;;;5006549;28;20437;-80
2023/09/21 04:10:28;;;;;;;0.40;0.30;;;16.20;99.90;;;;;;5007741;28;20433;-81
2023/09/21 04:12:57;;;;;;;0.70;0.70;;;16.10;99.90;;;;;;5003316;28;20452;-85
2023/09/21 04:15:27;;;;;;;0.40;0.20;;;16.00;99.90;;;;;;5006297;28;20285;-88
2023/09/21 04:17:54;;;;;;;0.40;0.30;;;16.00;99.90;;;;;;5004381;28;20477;-80
2023/09/21 04:20:21;;;;;;;0.40;0.30;;;16.00;99.90;;;;;;4987767;28;20584;-80
2023/09/21 04:22:49;;;;;;;0.40;0.30;;;15.90;99.90;;;;;;5004754;28;20479;-83
2023/09/21 04:25:16;;;;;;;0.40;0.20;;;15.90;99.90;;;;;;5004487;28;20463;-85
2023/09/21 04:27:44;;;;;;;0.60;0.60;;;16.00;99.90;;;;;;5008980;28;20441;-84
2023/09/21 04:30:14;;;;;;;0.50;0.30;;;15.90;99.90;;;;;;5009139;28;20452;-84
2023/09/21 04:32:40;;;;;;;0.50;0.40;;;15.90;99.90;;;;;;5000456;28;20452;-80
2023/09/21 04:35:06;;;;;;;1.10;0.77;;;15.80;99.90;;;;;;5004580;28;20488;-85
2023/09/21 04:37:35;;;;;;;0.40;0.27;;;15.80;99.90;;;;;;5007103;28;20485;-85
2023/09/21 04:40:09;;;;;;;0.40;0.30;;;15.80;99.90;;;;;;5003637;28;20526;-85
2023/09/21 04:42:35;;;;;;;0.40;0.30;;;15.80;99.90;;;;;;5000429;28;20453;-83
2023/09/21 04:45:01;;;;;;;0.40;0.20;;;15.70;99.90;;;;;;5006322;28;20473;-82
2023/09/21 04:47:27;;;;;;;0.40;0.20;;;15.60;99.90;;;;;;5007076;28;20451;-83
2023/09/21 04:49:56;;;;;;;0.40;0.33;;;15.60;99.90;;;;;;5007835;28;21268;-84
2023/09/21 04:52:22;;;;;;;0.50;0.40;;;15.40;99.90;;;;;;4985649;28;20448;-86
2023/09/21 04:54:51;;;;;;;0.40;0.30;;;15.30;99.90;;;;;;5019358;28;20626;-80
2023/09/21 04:57:20;;;;;;;0.40;0.20;;;15.30;99.90;;;;;;5007248;28;20463;-85
2023/09/21 04:59:46;;;;;;;0.40;0.20;;;15.20;99.90;;;;;;5004506;28;20488;-83
2023/09/21 05:02:12;;;;;;;0.40;0.20;;;15.20;99.90;;;;;;4980209;28;20962;-80
2023/09/21 05:04:38;;;;;;;0.40;0.30;;;15.20;99.90;;;;;;5013694;28;20716;-82
2023/09/21 05:07:05;;;;;;;0.63;0.60;;;15.20;99.90;;;;;;4987364;28;20449;-80
2023/09/21 05:09:31;;;;;;;0.40;0.30;;;15.00;99.90;;;;;;4979861;28;20441;-86
2023/09/21 05:11:56;;;;;;;0.40;0.20;;;14.80;99.90;;;;;;4980839;28;20444;-84
2023/09/21 05:14:22;;;;;;;0.40;0.20;;;14.70;99.90;;;;;;5009451;28;20224;-79
2023/09/21 05:16:47;;;;;;;0.63;0.50;;;14.70;99.90;;;;;;4990947;28;20214;-82
2023/09/21 05:19:13;;;;;;;0.40;0.20;;;14.90;99.90;;;;;;4989554;28;20190;-85
2023/09/21 05:21:40;;;;;;;0.40;0.20;;;15.00;99.90;;;;;;4992647;28;20213;-86
2023/09/21 05:24:06;;;;;;;0.40;0.30;;;15.10;99.90;;;;;;5011789;28;20484;-85
2023/09/21 05:26:32;;;;;;;0.40;0.30;;;15.10;99.90;;;;;;5006618;28;21096;-80
2023/09/21 05:28:58;;;;;;;0.40;0.30;;;15.10;99.90;;;;;;5009521;28;20441;-81
2023/09/21 05:31:23;;;;;;;0.40;0.20;;;15.10;99.90;;;;;;5009361;28;20190;-81
2023/09/21 05:33:49;;;;;;;0.40;0.23;;;15.20;99.90;;;;;;4989139;28;20324;-83
2023/09/21 05:36:15;;;;;;;0.40;0.30;;;15.30;99.90;;;;;;5014451;28;20182;-82
2023/09/21 05:38:41;;;;;;;0.40;0.20;;;15.30;99.90;;;;;;5005479;28;20194;-80
2023/09/21 05:41:06;;;;;;;0.57;0.57;;;15.30;99.90;;;;;;5009916;28;20730;-81
2023/09/21 05:43:32;;;;;;;0.40;0.30;;;15.20;99.90;;;;;;5008942;28;20461;-87
2023/09/21 05:45:57;;;;;;;0.40;0.30;;;15.20;99.90;;;;;;5008595;28;20182;-84
2023/09/21 05:48:23;;;;;;;0.40;0.20;;;15.30;99.90;;;;;;4994308;28;20558;-84
2023/09/21 05:50:52;;;;;;;0.40;0.20;;;15.30;99.90;;;;;;4987507;28;20197;-85
2023/09/21 05:53:20;;;;;;;0.40;0.20;;;15.40;99.90;;;;;;5007507;28;20555;-88
2023/09/21 05:55:45;;;;;;;0.67;0.57;;;15.50;99.90;;;;;;4992534;28;20441;-80
2023/09/21 05:58:11;;;;;;;0.40;0.20;;;15.60;99.90;;;;;;5010942;28;20643;-76
2023/09/21 06:00:36;;;;;;;0.87;0.80;;;15.70;99.90;;;;;;5018541;28;20231;-84
2023/09/21 06:03:02;;;;;;;0.40;0.20;;;15.70;99.90;;;;;;4992572;28;20182;-85
2023/09/21 06:05:29;;;;;;;2.73;1.60;;;15.70;99.90;;;;;;5010581;28;20202;-85
2023/09/21 06:07:56;;;;;;;0.40;0.30;;;15.80;99.90;;;;;;5006623;28;20194;-87
2023/09/21 06:10:22;;;;;;;0.40;0.20;;;15.90;99.90;;;;;;5011452;28;20448;-81
2023/09/21 06:12:48;;;;;;;2.53;2.33;;;15.90;99.90;;;;;;5006513;28;20445;-83
2023/09/21 06:15:15;;;;;;;0.40;0.20;;;15.80;99.90;;;;;;5014119;28;20460;-84
2023/09/21 06:17:40;;;;;;;0.40;0.20;;;15.80;99.90;;;;;;5014195;28;20451;-78
2023/09/21 06:20:07;;;;;;;0.40;0.30;;;15.90;99.90;;;;;;5003297;28;20504;-83
2023/09/21 06:22:32;;;;;;;0.97;0.80;;;16.10;99.90;;;;;;5016511;28;20425;-81
2023/09/21 06:24:59;;;;;;;0.40;0.30;;;16.30;99.90;;;;;;5012747;28;20471;-84
2023/09/21 06:27:25;;;;;;;0.40;0.20;;;16.40;99.90;;;;;;5019867;28;20186;-84
2023/09/21 06:29:51;;;;;;;0.40;0.20;;;16.40;99.90;;;;;;4995479;28;20451;-80
2023/09/21 06:32:18;;;;;;;0.40;0.20;;;16.30;99.90;;;;;;5001954;28;20441;-81
2023/09/21 06:34:45;;;;;;;0.40;0.20;;;16.40;99.90;;;;;;5015869;28;20218;-85
2023/09/21 06:37:11;;;;;;;0.67;0.67;;;16.60;99.90;;;;;;5015269;28;20441;-86
2023/09/21 06:39:37;;;;;;;0.40;0.30;;;16.70;99.90;;;;;;5014755;28;20947;-84
2023/09/21 06:42:03;;;;;;;0.40;0.20;;;16.70;99.90;;;;;;4998476;28;20472;-83
2023/09/21 06:44:29;;;;;;;0.40;0.20;;;16.80;99.90;;;;;;5014930;28;20269;-80
2023/09/21 06:46:55;;;;;;;0.40;0.20;;;16.70;99.90;;;;;;5013669;28;20461;-83
2023/09/21 06:49:21;;;;;;;0.40;0.30;;;16.90;99.90;;;;;;5013746;28;20190;-80
2023/09/21 06:51:49;;;;;;;0.83;0.83;;;16.70;99.90;;;;;;5011811;28;20468;-85
2023/09/21 06:54:15;;;;;;;0.40;0.30;;;16.80;99.90;;;;;;5011998;28;20465;-83
2023/09/21 06:56:41;;;;;;;0.40;0.20;;;17.20;99.90;;;;;;5014211;28;20449;-81
2023/09/21 06:59:06;;;;;;;1.00;0.83;;;17.40;99.90;;;;;;5008760;28;20920;-80
2023/09/21 07:01:33;;;;;;;0.40;0.30;;;17.60;99.90;;;;;;5009201;28;20439;-81
2023/09/21 07:03:58;;;;;;;0.40;0.30;;;17.70;99.90;;;;;;5012509;28;20556;-77
2023/09/21 07:06:24;;;;;;;0.40;0.40;;;17.80;99.90;;;;;;5016382;28;20480;-84
2023/09/21 07:08:50;;;;;;;0.67;0.60;;;18.00;99.90;;;;;;5009983;28;20213;-83
2023/09/21 07:11:19;;;;;;;0.40;0.30;;;18.10;99.90;;;;;;5010323;28;20445;-84
2023/09/21 07:13:46;;;;;;;0.40;0.30;;;18.10;99.90;;;;;;4993792;28;20399;-85
2023/09/21 07:16:12;;;;;;;0.40;0.30;;;18.20;99.90;;;;;;5006363;28;20260;-80
2023/09/21 07:18:39;;;;;;;0.40;0.20;;;;;;;;;;5009615;28;20445;-82
2023/09/21 07:21:05;;;;;;;0.80;0.43;;;18.40;99.90;;;;;;5011169;28;20465;-83
2023/09/21 07:23:31;;;;;;;0.40;0.30;;;18.80;99.90;;;;;;5012347;28;20477;-80
2023/09/21 07:25:57;;;;;;;0.90;0.60;;;18.80;99.90;;;;;;4989106;28;20442;-84
2023/09/21 07:28:22;;;;;;;0.40;0.20;;;19.00;99.90;;;;;;5012879;28;20445;-81
2023/09/21 07:30:52;;;;;;;0.50;0.40;;;19.00;99.90;;;;;;5011037;28;20433;-81
2023/09/21 07:33:20;;;;;;;0.60;0.60;;;19.20;99.90;;;;;;5020295;28;20190;-77
2023/09/21 07:35:46;;;;;;;0.50;0.30;;;;;;;;;;5013953;28;20451;-79
2023/09/21 07:38:12;;;;;;;0.40;0.30;;;19.60;99.90;;;;;;5007744;28;20560;-82
2023/09/21 07:40:38;;;;;;;0.40;0.20;;;;;;;;;;5010709;28;20540;-83
2023/09/21 07:43:03;;;;;;;0.40;0.30;;;19.60;99.90;;;;;;5012794;28;20186;-80
2023/09/21 07:45:30;;;;;;;0.40;0.20;;;;;;;;;;5012539;28;20536;-84
2023/09/21 07:47:56;;;;;;;0.40;0.30;;;;;;;;;;5010488;28;20210;-81
2023/09/21 07:50:25;;;;;;;0.40;0.23;;;19.70;99.90;;;;;;5009737;28;20437;-84
2023/09/21 07:52:56;;;;;;;0.40;0.30;;;;;;;;;;5013626;28;20471;-84
2023/09/21 07:55:22;;;;;;;0.40;0.20;;;20.00;99.90;;;;;;5010400;28;20480;-86
2023/09/21 07:57:48;;;;;;;0.40;0.30;;;;;;;;;;5010973;28;20869;-82
2023/09/21 08:00:14;;;;;;;0.40;0.30;;;20.70;99.90;;;;;;5011290;28;20531;-83
2023/09/21 08:02:40;;;;;;;1.27;0.60;;;21.40;99.90;;;;;;5014322;28;20447;-83
2023/09/21 08:05:06;;;;;;;0.50;0.40;;;22.20;99.90;;;;;;5012969;28;20457;-80
2023/09/21 08:07:33;;;;;;;0.40;0.30;;;22.80;99.90;;;;;;5010876;28;20195;-82
2023/09/21 08:10:01;;;;;;;0.40;0.30;;;23.20;99.90;;;;;;5000055;28;20187;-79
2023/09/21 08:12:27;;;;;;;0.47;0.30;;;;;;;;;;5003152;28;20472;-84
2023/09/21 08:14:54;;;;;;;0.97;0.53;;;;;;;;;;5014339;28;20919;-81
2023/09/21 08:17:19;;;;;;;0.40;0.30;;;;;;;;;;5017645;28;20491;-81
2023/09/21 08:19:46;;;;;;;0.40;0.30;;;21.60;99.90;;;;;;4998299;28;20445;-81
2023/09/21 08:22:12;;;;;;;0.40;0.30;;;21.50;99.90;;;;;;5016142;28;20433;-79
2023/09/21 08:24:41;;;;;;;0.40;0.30;;;;;;;;;;5001620;28;20464;-85
2023/09/21 08:27:07;;;;;;;0.50;0.40;;;;;;;;;;5019141;28;20196;-80
2023/09/21 08:29:33;;;;;;;1.23;0.60;;;22.90;99.90;;;;;;5018709;28;20947;-82
2023/09/21 08:31:59;;;;;;;0.50;0.40;;;;;;;;;;5018997;28;20437;-83
2023/09/21 08:34:25;;;;;;;0.50;0.40;;;;;;;;;;5019601;28;20206;-83
2023/09/21 08:36:51;;;;;;;0.40;0.30;;;24.90;99.90;;;;;;4998342;28;20445;-82
2023/09/21 08:39:17;;;;;;;0.40;0.20;;;24.70;99.90;;;;;;5008708;28;20444;-78
2023/09/21 08:41:50;;;;;;;0.47;0.40;;;24.60;99.90;;;;;;5024154;28;20483;-84
2023/09/21 08:44:18;;;;;;;0.60;0.40;;;23.50;99.90;;;;;;5018860;28;20205;-80
2023/09/21 08:46:45;;;;;;;0.40;0.30;;;24.30;99.90;;;;;;5019216;28;20441;-83
2023/09/21 08:49:12;;;;;;;0.40;0.30;;;23.80;99.90;;;;;;5019790;28;20966;-82
2023/09/21 08:51:40;;;;;;;1.30;1.23;;;23.30;99.90;;;;;;5015099;28;21091;-82
2023/09/21 08:54:07;;;;;;;0.40;0.30;;;22.90;99.90;;;;;;5026363;28;20475;-85
2023/09/21 08:56:36;;;;;;;0.40;0.30;;;22.90;99.90;;;;;;4995442;28;20440;-85
2023/09/21 08:59:04;;;;;;;0.40;0.23;;;22.20;99.90;;;;;;5005365;28;20460;-81
2023/09/21 09:01:30;;;;;;;0.40;0.27;;;22.00;99.90;;;;;;4995126;28;21042;-84
2023/09/21 09:03:56;;;;;;;0.60;0.40;;;22.10;99.90;;;;;;5010932;28;20468;-87
2023/09/21 09:06:22;;;;;;;0.40;0.30;;;22.60;99.90;;;;;;4992042;28;20458;-85
2023/09/21 09:08:48;;;;;;;1.37;1.20;;;23.30;99.90;;;;;;4992943;28;20468;-85
2023/09/21 09:11:40;;;;;;;0.40;0.30;;;24.10;99.90;;;;;;5010566;28;20213;-85
2023/09/21 09:14:12;;;;;;;0.50;0.40;;;24.80;99.90;;;;;;4994285;28;20465;-84
2023/09/21 09:16:37;;;;;;;0.40;0.30;;;24.80;99.90;;;;;;5021239;28;20517;-79
2023/09/21 09:19:05;;;;;;;0.40;0.30;;;24.80;99.90;;;;;;4987673;28;20575;-85
2023/09/21 09:21:31;;;;;;;0.40;0.30;;;24.70;99.90;;;;;;5011947;28;20214;-85
2023/09/21 09:23:57;;;;;;;0.50;0.40;;;25.50;99.90;;;;;;4991873;28;20485;-81
2023/09/21 09:26:22;;;;;;;0.40;0.30;;;26.00;99.90;;;;;;5009975;28;24209;-84
2023/09/21 09:28:48;;;;;;;0.40;0.23;;;25.60;99.90;;;;;;5011309;28;20197;-84
2023/09/21 09:31:17;;;;;;;0.50;0.40;;;25.90;99.90;;;;;;5010669;28;20725;-83
2023/09/21 09:33:46;;;;;;;0.60;0.40;;;25.80;99.90;;;;;;5006857;28;20221;-83
2023/09/21 09:36:13;;;;;;;0.40;0.30;;;25.80;99.90;;;;;;5009513;28;20444;-79
2023/09/21 09:38:39;;;;;;;0.40;0.23;;;24.90;99.90;;;;;;4989085;28;20450;-79
2023/09/21 09:41:04;;;;;;;0.40;0.27;;;24.70;99.90;;;;;;5008782;28;20478;-83
2023/09/21 09:43:30;;;;;;;0.70;0.70;;;;;;;;;;4995460;28;20756;-84
2023/09/21 09:46:03;;;;;;;0.40;0.20;;;24.00;99.90;;;;;;5006801;28;20191;-85
2023/09/21 09:48:32;;;;;;;0.63;0.50;;;23.70;99.90;;;;;;5007084;28;21233;-87
2023/09/21 09:51:05;;;;;;;0.40;0.20;;;24.10;99.90;;;;;;5009644;28;20528;-81
2023/09/21 09:53:34;;;;;;;0.43;0.30;;;24.50;99.90;;;;;;5008996;28;20529;-84
2023/09/21 09:56:07;;;;;;;0.40;0.30;;;24.50;99.90;;;;;;4991345;28;21408;-81
2023/09/21 09:58:40;;;;;;;0.40;0.30;;;24.90;99.90;;;;;;4983597;28;20450;-83
2023/09/21 10:01:11;;;;;;;0.60;0.43;;;25.00;99.90;;;;;;5005254;28;21477;-85
2023/09/21 10:03:38;;;;;;;0.40;0.30;;;25.40;99.90;;;;;;5009613;28;21474;-86
2023/09/21 10:06:09;;;;;;;0.40;0.30;;;25.80;99.90;;;;;;5009316;28;20446;-80
2023/09/21 10:08:38;;;;;;;0.40;0.30;;;26.00;99.90;;;;;;5012946;28;20521;-85
2023/09/21 10:11:08;;;;;;;0.57;0.57;;;26.10;99.90;;;;;;5017510;28;20441;-83
2023/09/21 10:13:55;;;;;;;0.40;0.30;;;26.70;99.90;;;;;;4991827;28;20531;-79
2023/09/21 10:16:26;;;;;;;0.40;0.30;;;26.70;99.90;;;;;;5018114;28;20447;-81
2023/09/21 10:18:53;;;;;;;0.50;0.40;;;26.40;99.90;;;;;;4991156;28;20517;-84
2023/09/21 10:21:31;;;;;;;0.50;0.30;;;26.70;99.90;;;;;;5002797;28;20469;-81
2023/09/21 10:24:06;;;;;;;0.50;0.33;;;26.70;99.90;;;;;;5011290;28;20480;-83
2023/09/21 10:26:43;;;;;;;0.50;0.40;;;27.00;99.90;;;;;;4995043;28;20451;-82
2023/09/21 10:29:11;;;;;;;0.40;0.30;;;;;;;;;;4993806;28;20441;-84
2023/09/21 10:31:39;;;;;;;0.40;0.30;;;;;;;;;;4994790;28;20439;-81
2023/09/21 10:34:07;;;;;;;0.60;0.50;;;27.00;99.90;;;;;;4986377;28;20591;-81
2023/09/21 10:36:37;;;;;;;0.40;0.30;;;26.80;99.90;;;;;;5009036;28;20437;-81
2023/09/21 10:39:11;;;;;;;0.50;0.30;;;26.60;99.90;;;;;;5012128;28;20447;-85
2023/09/21 10:41:43;;;;;;;0.40;0.30;;;26.60;99.90;;;;;;5015316;28;20477;-82
2023/09/21 10:44:09;;;;;;;0.40;0.30;;;26.50;99.90;;;;;;5008540;28;21073;-85
2023/09/21 10:46:39;;;;;;;1.07;0.53;;;26.50;99.90;;;;;;5010116;28;20457;-79
2023/09/21 10:49:05;;;;;;;0.50;0.40;;;26.90;99.90;;;;;;5015700;28;21900;-81
2023/09/21 10:51:32;;;;;;;2.50;0.70;;;;;;;;;;5013837;28;20465;-84
2023/09/21 10:53:58;;;;;;;0.50;0.30;;;28.60;99.90;;;;;;5015282;28;20288;-83
2023/09/21 10:56:25;;;;;;;0.70;0.70;;;29.20;99.90;;;;;;5014389;28;20435;-82
2023/09/21 10:58:50;;;;;;;0.50;0.30;;;;;;;;;;5012106;28;20443;-78
2023/09/21 11:01:19;;;;;;;1.07;0.97;;;29.30;99.90;;;;;;5012824;28;21390;-80
2023/09/21 11:03:48;;;;;;;0.40;0.30;;;27.70;99.90;;;;;;5014572;28;21095;-78
2023/09/21 11:06:17;;;;;;;0.50;0.33;;;27.90;99.90;;;;;;5013647;28;20934;-79
2023/09/21 11:08:50;;;;;;;0.40;0.30;;;26.80;99.90;;;;;;5013215;28;20445;-83
2023/09/21 11:11:16;;;;;;;0.47;0.30;;;;;;;;;;5012874;28;20458;-82
2023/09/21 11:13:42;;;;;;;0.50;0.40;;;27.20;99.90;;;;;;5010425;28;20468;-80
2023/09/21 11:16:14;;;;;;;0.40;0.30;;;27.50;99.90;;;;;;5008015;28;20448;-83
2023/09/21 11:18:40;;;;;;;0.40;0.30;;;28.20;99.90;;;;;;5011271;28;20452;-83
2023/09/21 11:21:10;;;;;;;0.40;0.30;;;27.90;99.90;;;;;;5019493;28;20513;-78
2023/09/21 11:23:36;;;;;;;0.53;0.50;;;27.60;99.90;;;;;;5009645;28;20507;-80
2023/09/21 11:26:05;;;;;;;0.47;0.37;;;29.20;99.90;;;;;;5016326;28;20447;-77
2023/09/21 11:28:32;;;;;;;0.50;0.40;;;27.70;99.90;;;;;;5025444;28;20445;-79
2023/09/21 11:30:58;;;;;;;0.40;0.30;;;28.20;99.90;;;;;;5023021;28;20427;-77
2023/09/21 11:33:27;;;;;;;0.40;0.30;;;27.70;99.90;;;;;;5023571;28;20449;-80
2023/09/21 11:35:52;;;;;;;0.40;0.30;;;27.70;99.90;;;;;;4996526;28;20203;-81
2023/09/21 11:38:18;;;;;;;0.40;0.30;;;27.60;99.90;;;;;;4994685;28;20528;-83
2023/09/21 11:40:44;;;;;;;0.60;0.50;;;;;;;;;;5010952;28;20212;-80
2023/09/21 11:43:16;;;;;;;0.40;0.30;;;27.70;99.90;;;;;;5008158;28;20500;-84
2023/09/21 11:45:46;;;;;;;0.40;0.30;;;27.80;99.90;;;;;;4990795;28;20445;-81
2023/09/21 11:48:12;;;;;;;0.50;0.30;;;28.00;99.90;;;;;;5010815;28;20444;-82
2023/09/21 11:50:38;;;;;;;0.40;0.30;;;28.40;99.90;;;;;;5011537;28;20846;-85
2023/09/21 11:53:07;;;;;;;0.60;0.30;;;27.80;99.90;;;;;;4997707;28;20196;-80
2023/09/21 11:55:33;;;;;;;0.60;0.57;;;29.10;99.90;;;;;;5014594;28;20471;-79
2023/09/21 11:58:15;;;;;;;0.50;0.30;;;29.10;99.90;;;;;;4986257;28;20459;-79
2023/09/21 12:00:43;;;;;;;1.07;0.50;;;29.30;99.90;;;;;;5012214;28;20529;-84
2023/09/21 12:03:12;;;;;;;0.50;0.30;;;29.30;99.90;;;;;;5013428;28;21032;-80
2023/09/21 12:05:39;;;;;;;0.50;0.30;;;29.30;99.90;;;;;;5013645;28;20436;-81
2023/09/21 12:08:05;;;;;;;0.50;0.30;;;;;;;;;;4992910;28;20452;-80
2023/09/21 12:10:31;;;;;;;0.50;0.30;;;28.80;99.90;;;;;;5015468;28;20451;-78
2023/09/21 12:12:57;;;;;;;0.50;0.30;;;28.80;99.90;;;;;;5014034;28;20456;-85
2023/09/21 12:15:23;;;;;;;0.40;0.30;;;28.60;99.90;;;;;;4997127;28;20932;-80
2023/09/21 12:17:48;;;;;;;0.50;0.30;;;28.40;99.90;;;;;;5014827;28;20210;-82
2023/09/21 12:20:18;;;;;;;0.40;0.30;;;;;;;;;;5017348;28;20204;-79
2023/09/21 12:22:44;;;;;;;1.03;0.70;;;;;;;;;;5012425;28;20215;-85
2023/09/21 12:25:10;;;;;;;0.40;0.30;;;;;;;;;;5013286;28;20465;-84
2023/09/21 12:27:37;;;;;;;1.67;1.57;;;28.60;99.90;;;;;;4989329;28;20436;-84
2023/09/21 12:30:05;;;;;;;1.00;0.83;;;28.40;99.90;;;;;;5009107;28;20450;-82
2023/09/21 12:32:31;;;;;;;0.40;0.30;;;28.30;99.90;;;;;;5019646;28;20554;-85
2023/09/21 12:34:57;;;;;;;0.50;0.47;;;;;;;;;;5000264;28;20468;-79
2023/09/21 12:37:23;;;;;;;0.50;0.30;;;29.00;99.40;;;;;;5011045;28;20848;-82
2023/09/21 12:39:48;;;;;;;0.40;0.30;;;29.10;99.90;;;;;;4992009;28;20448;-83
2023/09/21 12:42:14;;;;;;;0.50;0.30;;;29.30;99.90;;;;;;4991402;28;20185;-85
2023/09/21 12:44:40;;;;;;;0.50;0.30;;;29.30;99.20;;;;;;5007695;28;20198;-85
2023/09/21 12:47:09;;;;;;;0.77;0.40;;;29.30;98.90;;;;;;4989171;28;20449;-82
2023/09/21 12:49:35;;;;;;;0.40;0.30;;;29.50;98.30;;;;;;5011228;28;20533;-80
2023/09/21 12:52:01;;;;;;;0.50;0.37;;;29.40;98.80;;;;;;5010324;28;20447;-82
2023/09/21 12:54:27;;;;;;;0.90;0.50;;;29.30;98.50;;;;;;5007756;28;20474;-81
2023/09/21 12:56:53;;;;;;;0.40;0.30;;;;;;;;;;5007294;28;20197;-84
2023/09/21 12:59:19;;;;;;;0.50;0.43;;;;;;;;;;5005160;28;20197;-85